^^
MeteoGriva-Weather Station Historical Data
Daily Summary for October 21, 2020 Units:  Both    English   Metric
Daily Weekly Monthly Yearly Custom
  High: Low: Average:
Temperature: 68.4 °F /  20.2 °C 51.8 °F /  11 °C 58.6 °F /  14.8 °C
Dew Point: 55.2 °F /  12.9 °C 46.9 °F /  8.3 °C 50.7 °F /  10.4 °C
Humidity: 86.4% 60.8% 75%
Wind Speed: 1.7mph /  2.7km/h - 0.1mph /  0.1km/h
Wind Gust: 7.6mph /  12.2km/h - -
Wind- - SE
Pressure: 30.3 in /  1025.4 hPa 30.2 in /  1021.0 hPa -
Precipitation: 0 in /  0.0 mm    
Historical Graphs
 
 
Tabular Data for October 21, 2020
Time Temperature Dew Point Pressure Wind Wind Speed Wind Gust Humidity Rainfall Rate (Hourly) solar
00:04 53.1 °F /  11.7 °C 48.4 °F /  9.1 °C 30.3in /  1025.1hPa Calm     84.2% 0in /  0.0mm 0 W/m2
00:09 53.1 °F /  11.7 °C 48.6 °F /  9.2 °C 30.3in /  1025.1hPa Calm     84.9% 0in /  0.0mm 0 W/m2
00:14 53.1 °F /  11.7 °C 48.6 °F /  9.2 °C 30.3in /  1025.1hPa Calm     84.7% 0in /  0.0mm 0 W/m2
00:19 53.4 °F /  11.9 °C 48.7 °F /  9.3 °C 30.3in /  1025.1hPa Calm     84.1% 0in /  0.0mm 0 W/m2
00:24 53.4 °F /  11.9 °C 48.4 °F /  9.1 °C 30.3in /  1025.1hPa Calm   2.5mph /  4km/h 82.8% 0in /  0.0mm 0 W/m2
00:29 53.6 °F /  12 °C 48.4 °F /  9.1 °C 30.3in /  1025.1hPa Calm     82.6% 0in /  0.0mm 0 W/m2
00:34 53.6 °F /  12 °C 48.4 °F /  9.1 °C 30.3in /  1025.1hPa Calm     82.4% 0in /  0.0mm 0 W/m2
00:39 54 °F /  12.2 °C 48.7 °F /  9.3 °C 30.3in /  1025.1hPa Calm     82.8% 0in /  0.0mm 0 W/m2
00:44 54 °F /  12.2 °C 49.1 °F /  9.5 °C 30.3in /  1025.1hPa Calm     83.7% 0in /  0.0mm 0 W/m2
00:49 54.1 °F /  12.3 °C 48.6 °F /  9.2 °C 30.3in /  1025.1hPa Calm     81.6% 0in /  0.0mm 0 W/m2
00:54 54.1 °F /  12.3 °C 48.7 °F /  9.3 °C 30.3in /  1025.1hPa Calm     81.8% 0in /  0.0mm 0 W/m2
00:59 54.3 °F /  12.4 °C 49.3 °F /  9.6 °C 30.3in /  1025.1hPa Calm     82.8% 0in /  0.0mm 0 W/m2
01:04 54.3 °F /  12.4 °C 49.3 °F /  9.6 °C 30.3in /  1025.1hPa Calm     83% 0in /  0.0mm 0 W/m2
01:09 54.3 °F /  12.4 °C 49.3 °F /  9.6 °C 30.3in /  1025.1hPa Calm     83% 0in /  0.0mm 0 W/m2
01:14 54.3 °F /  12.4 °C 49.3 °F /  9.6 °C 30.3in /  1025.1hPa Calm     82.6% 0in /  0.0mm 0 W/m2
01:19 54.5 °F /  12.5 °C 49.3 °F /  9.6 °C 30.3in /  1025.1hPa Calm     82.6% 0in /  0.0mm 0 W/m2
01:24 54.5 °F /  12.5 °C 49.5 °F /  9.7 °C 30.3in /  1025.1hPa Calm     82.9% 0in /  0.0mm 0 W/m2
01:29 54.3 °F /  12.4 °C 49.3 °F /  9.6 °C 30.3in /  1025.1hPa Calm     83% 0in /  0.0mm 0 W/m2
01:34 54.3 °F /  12.4 °C 49.1 °F /  9.5 °C 30.3in /  1025.1hPa Calm     82.6% 0in /  0.0mm 0 W/m2
01:39 54.5 °F /  12.5 °C 49.1 °F /  9.5 °C 30.3in /  1025.1hPa Calm     82.3% 0in /  0.0mm 0 W/m2
01:44 54.5 °F /  12.5 °C 49.1 °F /  9.5 °C 30.3in /  1025.1hPa Calm     82% 0in /  0.0mm 0 W/m2
01:49 54.5 °F /  12.5 °C 49.1 °F /  9.5 °C 30.3in /  1025.1hPa Calm     82% 0in /  0.0mm 0 W/m2
01:54 54.5 °F /  12.5 °C 48.9 °F /  9.4 °C 30.3in /  1025.1hPa Calm     81.3% 0in /  0.0mm 0 W/m2
01:59 54 °F /  12.2 °C 48.7 °F /  9.3 °C 30.3in /  1025.1hPa Calm     82.6% 0in /  0.0mm 0 W/m2
02:04 53.8 °F /  12.1 °C 48.2 °F /  9 °C 30.3in /  1025.1hPa Calm     81.4% 0in /  0.0mm 0 W/m2
02:09 54 °F /  12.2 °C 48.2 °F /  9 °C 30.3in /  1025.1hPa Calm     81.4% 0in /  0.0mm 0 W/m2
02:14 54 °F /  12.2 °C 48.4 °F /  9.1 °C 30.3in /  1025.1hPa Calm     81.3% 0in /  0.0mm 0 W/m2
02:19 54.3 °F /  12.4 °C 48.6 °F /  9.2 °C 30.3in /  1025.1hPa Calm     81% 0in /  0.0mm 0 W/m2
02:24 54.3 °F /  12.4 °C 49.3 °F /  9.6 °C 30.3in /  1025.1hPa Calm     83% 0in /  0.0mm 0 W/m2
02:29 54.1 °F /  12.3 °C 49.1 °F /  9.5 °C 30.3in /  1025.4hPa Calm     83.1% 0in /  0.0mm 0 W/m2
02:34 54 °F /  12.2 °C 48.9 °F /  9.4 °C 30.3in /  1025.4hPa Calm     83% 0in /  0.0mm 0 W/m2
02:39 53.4 °F /  11.9 °C 48.7 °F /  9.3 °C 30.3in /  1025.4hPa Calm     83.7% 0in /  0.0mm 0 W/m2
02:44 53.2 °F /  11.8 °C 48.4 °F /  9.1 °C 30.3in /  1025.4hPa Calm     83.3% 0in /  0.0mm 0 W/m2
02:49 53.2 °F /  11.8 °C 48.6 °F /  9.2 °C 30.3in /  1025.4hPa Calm     83.9% 0in /  0.0mm 0 W/m2
02:54 53.1 °F /  11.7 °C 48.4 °F /  9.1 °C 30.3in /  1025.4hPa Calm     83.8% 0in /  0.0mm 0 W/m2
02:59 53.2 °F /  11.8 °C 48.4 °F /  9.1 °C 30.3in /  1025.1hPa Calm     83.5% 0in /  0.0mm 0 W/m2
03:04 53.2 °F /  11.8 °C 48.2 °F /  9 °C 30.3in /  1025.1hPa Calm     83% 0in /  0.0mm 0 W/m2
03:09 53.1 °F /  11.7 °C 48.2 °F /  9 °C 30.3in /  1025.4hPa Calm     83.3% 0in /  0.0mm 0 W/m2
03:14 53.1 °F /  11.7 °C 48.4 °F /  9.1 °C 30.3in /  1025.4hPa Calm     83.9% 0in /  0.0mm 0 W/m2
03:19 53.1 °F /  11.7 °C 48.2 °F /  9 °C 30.3in /  1025.1hPa Calm     83.6% 0in /  0.0mm 0 W/m2
03:24 53.1 °F /  11.7 °C 48.2 °F /  9 °C 30.3in /  1025.1hPa Calm     83.3% 0in /  0.0mm 0 W/m2
03:29 53.1 °F /  11.7 °C 48.4 °F /  9.1 °C 30.3in /  1025.1hPa Calm     84% 0in /  0.0mm 0 W/m2
03:34 52.9 °F /  11.6 °C 48.4 °F /  9.1 °C 30.3in /  1025.1hPa Calm     84.2% 0in /  0.0mm 0 W/m2
03:39 52.7 °F /  11.5 °C 48 °F /  8.9 °C 30.3in /  1025.1hPa Calm     84% 0in /  0.0mm 0 W/m2
03:44 52.3 °F /  11.3 °C 47.7 °F /  8.7 °C 30.3in /  1025.1hPa Calm     83.9% 0in /  0.0mm 0 W/m2
03:49 52.5 °F /  11.4 °C 47.5 °F /  8.6 °C 30.3in /  1025.1hPa Calm     83% 0in /  0.0mm 0 W/m2
03:54 52.5 °F /  11.4 °C 47.5 °F /  8.6 °C 30.3in /  1025.1hPa Calm     83% 0in /  0.0mm 0 W/m2
03:59 52.7 °F /  11.5 °C 47.7 °F /  8.7 °C 30.3in /  1025.1hPa Calm     83% 0in /  0.0mm 0 W/m2
04:04 52.9 °F /  11.6 °C 47.5 °F /  8.6 °C 30.3in /  1025.1hPa Calm     82.1% 0in /  0.0mm 0 W/m2
04:09 52.9 °F /  11.6 °C 47.5 °F /  8.6 °C 30.3in /  1025.1hPa Calm     81.6% 0in /  0.0mm 0 W/m2
04:14 53.1 °F /  11.7 °C 47.5 °F /  8.6 °C 30.3in /  1025.1hPa Calm     81.6% 0in /  0.0mm 0 W/m2
04:19 53.1 °F /  11.7 °C 48 °F /  8.9 °C 30.3in /  1025.1hPa West 0.1mph /  0.1km/h 2.5mph /  4km/h 83.1% 0in /  0.0mm 0 W/m2
04:24 53.1 °F /  11.7 °C 47.8 °F /  8.8 °C 30.3in /  1025.1hPa Calm     82.2% 0in /  0.0mm 0 W/m2
04:29 53.2 °F /  11.8 °C 47.7 °F /  8.7 °C 30.3in /  1024.7hPa Calm     81.7% 0in /  0.0mm 0 W/m2
04:34 53.2 °F /  11.8 °C 47.8 °F /  8.8 °C 30.3in /  1024.7hPa Calm     81.9% 0in /  0.0mm 0 W/m2
04:39 53.1 °F /  11.7 °C 48 °F /  8.9 °C 30.3in /  1025.1hPa Calm     83% 0in /  0.0mm 0 W/m2
04:44 52.9 °F /  11.6 °C 47.8 °F /  8.8 °C 30.3in /  1025.1hPa Calm     83.2% 0in /  0.0mm 0 W/m2
04:49 52.9 °F /  11.6 °C 48 °F /  8.9 °C 30.3in /  1024.7hPa Calm     83.6% 0in /  0.0mm 0 W/m2
04:54 52.9 °F /  11.6 °C 47.8 °F /  8.8 °C 30.3in /  1024.7hPa Calm     83% 0in /  0.0mm 0 W/m2
04:59 53.1 °F /  11.7 °C 47.7 °F /  8.7 °C 30.3in /  1024.7hPa Calm     82% 0in /  0.0mm 0 W/m2
05:04 53.1 °F /  11.7 °C 47.8 °F /  8.8 °C 30.3in /  1024.7hPa Calm     82.3% 0in /  0.0mm 0 W/m2
05:09 53.1 °F /  11.7 °C 48 °F /  8.9 °C 30.3in /  1024.7hPa Calm     83% 0in /  0.0mm 0 W/m2
05:14 53.1 °F /  11.7 °C 48 °F /  8.9 °C 30.3in /  1024.7hPa Calm     83% 0in /  0.0mm 0 W/m2
05:19 53.2 °F /  11.8 °C 47.8 °F /  8.8 °C 30.3in /  1024.7hPa Calm     82.2% 0in /  0.0mm 0 W/m2
05:24 53.2 °F /  11.8 °C 48.2 °F /  9 °C 30.3in /  1024.7hPa Calm     82.9% 0in /  0.0mm 0 W/m2
05:29 53.2 °F /  11.8 °C 48.2 °F /  9 °C 30.3in /  1024.7hPa Calm     82.8% 0in /  0.0mm 0 W/m2
05:34 53.2 °F /  11.8 °C 47.8 °F /  8.8 °C 30.3in /  1024.7hPa Calm     82.3% 0in /  0.0mm 0 W/m2
05:39 53.1 °F /  11.7 °C 48 °F /  8.9 °C 30.3in /  1024.7hPa Calm     82.8% 0in /  0.0mm 0 W/m2
05:44 52.9 °F /  11.6 °C 47.7 °F /  8.7 °C 30.3in /  1024.7hPa Calm     82.7% 0in /  0.0mm 0 W/m2
05:49 52.9 °F /  11.6 °C 47.8 °F /  8.8 °C 30.3in /  1024.7hPa Calm     83% 0in /  0.0mm 0 W/m2
05:54 52.9 °F /  11.6 °C 47.7 °F /  8.7 °C 30.3in /  1024.4hPa Calm     82.7% 0in /  0.0mm 0 W/m2
05:59 52.9 °F /  11.6 °C 47.8 °F /  8.8 °C 30.3in /  1024.4hPa Calm     83% 0in /  0.0mm 0 W/m2
06:04 52.9 °F /  11.6 °C 47.8 °F /  8.8 °C 30.3in /  1024.7hPa Calm     82.9% 0in /  0.0mm 0 W/m2
06:09 52.9 °F /  11.6 °C 47.5 °F /  8.6 °C 30.3in /  1024.7hPa Calm     82% 0in /  0.0mm 0 W/m2
06:14 52.9 °F /  11.6 °C 47.7 °F /  8.7 °C 30.3in /  1024.7hPa Calm     82.8% 0in /  0.0mm 0 W/m2
06:19 52.7 °F /  11.5 °C 48.2 °F /  9 °C 30.3in /  1024.7hPa Calm     84.4% 0in /  0.0mm 0 W/m2
06:24 52.2 °F /  11.2 °C 47.7 °F /  8.7 °C 30.3in /  1024.7hPa Calm     84.6% 0in /  0.0mm 0 W/m2
06:29 52.2 °F /  11.2 °C 46.9 °F /  8.3 °C 30.3in /  1024.7hPa Calm     82.6% 0in /  0.0mm 0 W/m2
06:34 52.3 °F /  11.3 °C 47.5 °F /  8.6 °C 30.3in /  1024.7hPa Calm     83.7% 0in /  0.0mm 0 W/m2
06:39 52.3 °F /  11.3 °C 47.8 °F /  8.8 °C 30.3in /  1024.7hPa Calm     84.4% 0in /  0.0mm 0 W/m2
06:44 52.5 °F /  11.4 °C 47.7 °F /  8.7 °C 30.3in /  1024.4hPa Calm     83.7% 0in /  0.0mm 0 W/m2
06:49 52.5 °F /  11.4 °C 47.8 °F /  8.8 °C 30.3in /  1024.4hPa Calm     84% 0in /  0.0mm 0 W/m2
06:54 52.5 °F /  11.4 °C 47.8 °F /  8.8 °C 30.3in /  1024.4hPa Calm     84.1% 0in /  0.0mm 0 W/m2
06:59 52.5 °F /  11.4 °C 48 °F /  8.9 °C 30.3in /  1024.4hPa Calm     84.7% 0in /  0.0mm 0 W/m2
07:04 52.3 °F /  11.3 °C 47.8 °F /  8.8 °C 30.3in /  1024.4hPa Calm     84.7% 0in /  0.0mm 0 W/m2
07:09 52.3 °F /  11.3 °C 47.7 °F /  8.7 °C 30.3in /  1024.7hPa Calm     83.7% 0in /  0.0mm 0 W/m2
07:14 52.3 °F /  11.3 °C 47.7 °F /  8.7 °C 30.3in /  1024.4hPa Calm     84% 0in /  0.0mm 0 W/m2
07:19 52.5 °F /  11.4 °C 47.8 °F /  8.8 °C 30.3in /  1024.7hPa Calm     84% 0in /  0.0mm 0 W/m2
07:24 52.5 °F /  11.4 °C 48 °F /  8.9 °C 30.3in /  1024.4hPa Calm     84.3% 0in /  0.0mm 0 W/m2
07:29 52.5 °F /  11.4 °C 48 °F /  8.9 °C 30.3in /  1024.4hPa Calm     84.4% 0in /  0.0mm 0 W/m2
07:34 52.5 °F /  11.4 °C 48.2 °F /  9 °C 30.3in /  1024.4hPa Calm     84.9% 0in /  0.0mm 0 W/m2
07:39 52.3 °F /  11.3 °C 48.4 °F /  9.1 °C 30.2in /  1024.0hPa Calm     86.2% 0in /  0.0mm 0 W/m2
07:44 51.8 °F /  11 °C 47.7 °F /  8.7 °C 30.3in /  1024.4hPa Calm     86.4% 0in /  0.0mm 0 W/m2
07:49 51.8 °F /  11 °C 47.7 °F /  8.7 °C 30.3in /  1024.7hPa Calm     86% 0in /  0.0mm 0 W/m2
07:54 51.8 °F /  11 °C 47.5 °F /  8.6 °C 30.3in /  1024.7hPa Calm     85% 0in /  0.0mm 4 W/m2
07:59 51.8 °F /  11 °C 47.5 °F /  8.6 °C 30.3in /  1024.7hPa Calm     84.8% 0in /  0.0mm 8 W/m2
08:04 52 °F /  11.1 °C 47.7 °F /  8.7 °C 30.3in /  1024.7hPa Calm     85.1% 0in /  0.0mm 14 W/m2
08:09 52 °F /  11.1 °C 47.3 °F /  8.5 °C 30.3in /  1024.7hPa Calm     83.7% 0in /  0.0mm 20 W/m2
08:14 52.3 °F /  11.3 °C 46.9 °F /  8.3 °C 30.3in /  1024.7hPa Calm     82.1% 0in /  0.0mm 26 W/m2
08:19 52.9 °F /  11.6 °C 47.3 °F /  8.5 °C 30.3in /  1024.7hPa Calm     81.6% 0in /  0.0mm 32 W/m2
08:24 54.5 °F /  12.5 °C 48.6 °F /  9.2 °C 30.3in /  1024.7hPa Calm     80.3% 0in /  0.0mm 38 W/m2
08:29 54.7 °F /  12.6 °C 48 °F /  8.9 °C 30.3in /  1024.7hPa Calm     78.3% 0in /  0.0mm 43 W/m2
08:34 54.9 °F /  12.7 °C 48 °F /  8.9 °C 30.3in /  1024.7hPa Calm     77.1% 0in /  0.0mm 48 W/m2
08:39 55.6 °F /  13.1 °C 47.3 °F /  8.5 °C 30.3in /  1025.1hPa Calm     73.4% 0in /  0.0mm 53 W/m2
08:44 59 °F /  15 °C 50 °F /  10 °C 30.3in /  1025.1hPa Calm     72.2% 0in /  0.0mm 59 W/m2
08:49 59.2 °F /  15.1 °C 50.2 °F /  10.1 °C 30.3in /  1025.1hPa Calm     71.9% 0in /  0.0mm 63 W/m2
08:54 59.5 °F /  15.3 °C 49.8 °F /  9.9 °C 30.3in /  1025.1hPa Calm     70% 0in /  0.0mm 67 W/m2
08:59 59.9 °F /  15.5 °C 50.4 °F /  10.2 °C 30.3in /  1025.4hPa Calm     70.7% 0in /  0.0mm 85 W/m2
09:04 61.5 °F /  16.4 °C 51.4 °F /  10.8 °C 30.3in /  1025.1hPa Calm     69.4% 0in /  0.0mm 102 W/m2
09:09 61.5 °F /  16.4 °C 52 °F /  11.1 °C 30.3in /  1025.4hPa Calm     71% 0in /  0.0mm 81 W/m2
09:14 61.3 °F /  16.3 °C 52.2 °F /  11.2 °C 30.3in /  1025.1hPa Calm     71.7% 0in /  0.0mm 80 W/m2
09:19 61.3 °F /  16.3 °C 51.6 °F /  10.9 °C 30.3in /  1025.1hPa Calm     70.4% 0in /  0.0mm 82 W/m2
09:24 62.1 °F /  16.7 °C 51.6 °F /  10.9 °C 30.3in /  1025.1hPa Calm     68.8% 0in /  0.0mm 83 W/m2
09:29 62.1 °F /  16.7 °C 51.4 °F /  10.8 °C 30.3in /  1025.1hPa Calm     67.9% 0in /  0.0mm 85 W/m2
09:34 62.2 °F /  16.8 °C 51.4 °F /  10.8 °C 30.3in /  1025.1hPa Calm     67.7% 0in /  0.0mm 86 W/m2
09:39 62.4 °F /  16.9 °C 51.4 °F /  10.8 °C 30.3in /  1025.1hPa Calm     67.3% 0in /  0.0mm 88 W/m2
09:44 61.2 °F /  16.2 °C 51.1 °F /  10.6 °C 30.3in /  1025.1hPa ENE 0.1mph /  0.1km/h 4.9mph /  7.9km/h 69.7% 0in /  0.0mm 88 W/m2
09:49 61 °F /  16.1 °C 51.4 °F /  10.8 °C 30.3in /  1025.1hPa Calm     70.9% 0in /  0.0mm 89 W/m2
09:54 61 °F /  16.1 °C 51.4 °F /  10.8 °C 30.3in /  1025.1hPa Calm   2.5mph /  4km/h 70.8% 0in /  0.0mm 90 W/m2
09:59 61 °F /  16.1 °C 51.3 °F /  10.7 °C 30.3in /  1025.4hPa Calm   2.5mph /  4km/h 70.7% 0in /  0.0mm 91 W/m2
10:04 62.1 °F /  16.7 °C 52.7 °F /  11.5 °C 30.3in /  1025.4hPa ESE 0.2mph /  0.3km/h 2.5mph /  4km/h 71.4% 0in /  0.0mm 92 W/m2
10:09 62.2 °F /  16.8 °C 52.7 °F /  11.5 °C 30.3in /  1025.4hPa Calm   2.5mph /  4km/h 71.2% 0in /  0.0mm 94 W/m2
10:14 62.1 °F /  16.7 °C 52.9 °F /  11.6 °C 30.3in /  1025.4hPa Calm     72% 0in /  0.0mm 95 W/m2
10:19 61.9 °F /  16.6 °C 52.5 °F /  11.4 °C 30.3in /  1025.4hPa Calm     71.6% 0in /  0.0mm 98 W/m2
10:24 60.1 °F /  15.6 °C 51.3 °F /  10.7 °C 30.3in /  1025.4hPa Calm     72.8% 0in /  0.0mm 101 W/m2
10:29 59.9 °F /  15.5 °C 50.2 °F /  10.1 °C 30.3in /  1025.4hPa Calm     69.9% 0in /  0.0mm 104 W/m2
10:34 60.4 °F /  15.8 °C 50 °F /  10 °C 30.3in /  1025.4hPa Calm     68.6% 0in /  0.0mm 108 W/m2
10:39 60.8 °F /  16 °C 51.6 °F /  10.9 °C 30.3in /  1025.4hPa East 0.1mph /  0.2km/h 4.9mph /  7.9km/h 71.6% 0in /  0.0mm 111 W/m2
10:44 60.4 °F /  15.8 °C 51.6 °F /  10.9 °C 30.3in /  1025.4hPa NE 0.1mph /  0.2km/h 2.5mph /  4km/h 72.6% 0in /  0.0mm 114 W/m2
10:49 60.3 °F /  15.7 °C 51.4 °F /  10.8 °C 30.3in /  1025.1hPa NE 0.1mph /  0.2km/h 4.9mph /  7.9km/h 72.6% 0in /  0.0mm 119 W/m2
10:54 60.3 °F /  15.7 °C 51.8 °F /  11 °C 30.3in /  1025.1hPa Calm     73.4% 0in /  0.0mm 123 W/m2
10:59 60.3 °F /  15.7 °C 51.6 °F /  10.9 °C 30.3in /  1025.1hPa Calm     73.1% 0in /  0.0mm 129 W/m2
11:04 61.2 °F /  16.2 °C 52.2 °F /  11.2 °C 30.3in /  1025.4hPa Calm     72% 0in /  0.0mm 134 W/m2
11:09 61.3 °F /  16.3 °C 52.3 °F /  11.3 °C 30.3in /  1025.1hPa Calm     72.3% 0in /  0.0mm 140 W/m2
11:14 61.7 °F /  16.5 °C 51.8 °F /  11 °C 30.3in /  1025.1hPa ESE 0.1mph /  0.2km/h 4.9mph /  7.9km/h 70.2% 0in /  0.0mm 146 W/m2
11:19 62.1 °F /  16.7 °C 52 °F /  11.1 °C 30.3in /  1025.1hPa SE 0.1mph /  0.2km/h 2.5mph /  4km/h 69.6% 0in /  0.0mm 152 W/m2
11:24 63 °F /  17.2 °C 53.1 °F /  11.7 °C 30.3in /  1025.1hPa Calm   2.5mph /  4km/h 70.2% 0in /  0.0mm 158 W/m2
11:29 63.1 °F /  17.3 °C 53.2 °F /  11.8 °C 30.3in /  1025.1hPa Calm   2.5mph /  4km/h 69.7% 0in /  0.0mm 165 W/m2
11:34 63.3 °F /  17.4 °C 53.4 °F /  11.9 °C 30.3in /  1025.1hPa SSW 0.1mph /  0.2km/h 2.5mph /  4km/h 69.8% 0in /  0.0mm 171 W/m2
11:39 63.5 °F /  17.5 °C 53.6 °F /  12 °C 30.3in /  1025.1hPa SSE 0.5mph /  0.8km/h 2.5mph /  4km/h 70% 0in /  0.0mm 177 W/m2
11:44 63.1 °F /  17.3 °C 53.4 °F /  11.9 °C 30.3in /  1025.1hPa SSE 0.7mph /  1.2km/h 4.9mph /  7.9km/h 70.7% 0in /  0.0mm 184 W/m2
11:49 62.8 °F /  17.1 °C 53.2 °F /  11.8 °C 30.3in /  1025.1hPa ESE 0.4mph /  0.6km/h 4.9mph /  7.9km/h 71.1% 0in /  0.0mm 192 W/m2
11:54 62.8 °F /  17.1 °C 52.9 °F /  11.6 °C 30.3in /  1025.1hPa SE 0.3mph /  0.5km/h 4.9mph /  7.9km/h 70.1% 0in /  0.0mm 197 W/m2
11:59 62.6 °F /  17 °C 53.1 °F /  11.7 °C 30.3in /  1025.1hPa Calm   2.5mph /  4km/h 71% 0in /  0.0mm 207 W/m2
12:04 63.1 °F /  17.3 °C 53.2 °F /  11.8 °C 30.3in /  1025.1hPa NE 0.2mph /  0.4km/h 4.9mph /  7.9km/h 70.2% 0in /  0.0mm 213 W/m2
12:09 63.1 °F /  17.3 °C 53.8 °F /  12.1 °C 30.3in /  1025.1hPa NNE 0.2mph /  0.4km/h 4.9mph /  7.9km/h 71.1% 0in /  0.0mm 221 W/m2
12:14 63 °F /  17.2 °C 53.2 °F /  11.8 °C 30.3in /  1025.1hPa Calm     70.2% 0in /  0.0mm 233 W/m2
12:19 63.1 °F /  17.3 °C 52.3 °F /  11.3 °C 30.3in /  1024.7hPa East 0.6mph /  0.9km/h 4.9mph /  7.9km/h 67.8% 0in /  0.0mm 242 W/m2
12:24 63.7 °F /  17.6 °C 52.5 °F /  11.4 °C 30.3in /  1024.7hPa SSE 0.2mph /  0.3km/h 4.9mph /  7.9km/h 66.6% 0in /  0.0mm 251 W/m2
12:29 64 °F /  17.8 °C 53.1 °F /  11.7 °C 30.3in /  1025.1hPa ENE 0.4mph /  0.7km/h 4.9mph /  7.9km/h 67.6% 0in /  0.0mm 261 W/m2
12:34 63.9 °F /  17.7 °C 52.7 °F /  11.5 °C 30.3in /  1024.7hPa Calm     67.1% 0in /  0.0mm 271 W/m2
12:39 63.9 °F /  17.7 °C 52.5 °F /  11.4 °C 30.3in /  1024.7hPa ESE 0.9mph /  1.4km/h 4.9mph /  7.9km/h 66.5% 0in /  0.0mm 281 W/m2
12:44 63 °F /  17.2 °C 52.3 °F /  11.3 °C 30.3in /  1024.4hPa NNE 1.1mph /  1.7km/h 4.9mph /  7.9km/h 68.4% 0in /  0.0mm 289 W/m2
12:49 62.1 °F /  16.7 °C 52 °F /  11.1 °C 30.3in /  1024.4hPa SSE 0.3mph /  0.5km/h 4.9mph /  7.9km/h 69.2% 0in /  0.0mm 300 W/m2
12:54 62.2 °F /  16.8 °C 51.8 °F /  11 °C 30.3in /  1024.4hPa East 0.2mph /  0.3km/h 4.9mph /  7.9km/h 68.1% 0in /  0.0mm 313 W/m2
12:59 62.6 °F /  17 °C 51.6 °F /  10.9 °C 30.3in /  1024.4hPa SE 0.6mph /  0.9km/h 4.9mph /  7.9km/h 67.2% 0in /  0.0mm 323 W/m2
13:04 64 °F /  17.8 °C 52.7 °F /  11.5 °C 30.2in /  1024.0hPa Calm   4.9mph /  7.9km/h 66.8% 0in /  0.0mm 332 W/m2
13:09 64.9 °F /  18.3 °C 53.1 °F /  11.7 °C 30.2in /  1024.0hPa SSE 0.9mph /  1.4km/h 4.9mph /  7.9km/h 65.4% 0in /  0.0mm 349 W/m2
13:14 64.9 °F /  18.3 °C 53.6 °F /  12 °C 30.2in /  1024.0hPa ESE 0.4mph /  0.7km/h 4.9mph /  7.9km/h 66.6% 0in /  0.0mm 356 W/m2
13:19 64.8 °F /  18.2 °C 53.1 °F /  11.7 °C 30.2in /  1024.0hPa SE 0.4mph /  0.6km/h 4.9mph /  7.9km/h 65.8% 0in /  0.0mm 363 W/m2
13:24 64.6 °F /  18.1 °C 53.2 °F /  11.8 °C 30.2in /  1023.7hPa ENE 0.5mph /  0.8km/h 4.9mph /  7.9km/h 66.6% 0in /  0.0mm 366 W/m2
13:29 64.2 °F /  17.9 °C 52.3 °F /  11.3 °C 30.2in /  1023.7hPa NE 0.2mph /  0.3km/h 4.9mph /  7.9km/h 65.2% 0in /  0.0mm 361 W/m2
13:34 64.2 °F /  17.9 °C 52.9 °F /  11.6 °C 30.2in /  1023.7hPa ENE 0.2mph /  0.4km/h 4.9mph /  7.9km/h 66.3% 0in /  0.0mm 369 W/m2
13:39 64.2 °F /  17.9 °C 52 °F /  11.1 °C 30.2in /  1023.4hPa ESE 0.6mph /  1km/h 4.9mph /  7.9km/h 64.4% 0in /  0.0mm 391 W/m2
13:44 64.4 °F /  18 °C 51.8 °F /  11 °C 30.2in /  1023.4hPa SE 0.1mph /  0.2km/h 4.9mph /  7.9km/h 63.6% 0in /  0.0mm 392 W/m2
13:49 64.6 °F /  18.1 °C 52.3 °F /  11.3 °C 30.2in /  1023.4hPa NE 0.5mph /  0.8km/h 4.9mph /  7.9km/h 64.6% 0in /  0.0mm 388 W/m2
13:54 64.4 °F /  18 °C 52.7 °F /  11.5 °C 30.2in /  1023.4hPa ENE 0.2mph /  0.3km/h 4.9mph /  7.9km/h 65.6% 0in /  0.0mm 392 W/m2
13:59 64.2 °F /  17.9 °C 51.8 °F /  11 °C 30.2in /  1023.4hPa ENE 0.2mph /  0.3km/h 4.9mph /  7.9km/h 63.8% 0in /  0.0mm 394 W/m2
14:04 65.3 °F /  18.5 °C 52.2 °F /  11.2 °C 30.2in /  1023.0hPa Calm   4.9mph /  7.9km/h 62.6% 0in /  0.0mm 396 W/m2
14:09 66.4 °F /  19.1 °C 52.9 °F /  11.6 °C 30.2in /  1023.0hPa SE 1.3mph /  2.1km/h 4.9mph /  7.9km/h 61.9% 0in /  0.0mm 404 W/m2
14:14 66.4 °F /  19.1 °C 52.9 °F /  11.6 °C 30.2in /  1022.7hPa SE 0.1mph /  0.1km/h 4.9mph /  7.9km/h 62% 0in /  0.0mm 399 W/m2
14:19 66 °F /  18.9 °C 53.2 °F /  11.8 °C 30.2in /  1022.7hPa North 0.3mph /  0.5km/h 2.5mph /  4km/h 63.2% 0in /  0.0mm 405 W/m2
14:24 64.9 °F /  18.3 °C 52.9 °F /  11.6 °C 30.2in /  1022.7hPa ENE 0.1mph /  0.1km/h 4.9mph /  7.9km/h 64.9% 0in /  0.0mm 395 W/m2
14:29 63.9 °F /  17.7 °C 51.8 °F /  11 °C 30.2in /  1022.7hPa NE 0.4mph /  0.6km/h 4.9mph /  7.9km/h 64.9% 0in /  0.0mm 403 W/m2
14:34 63.9 °F /  17.7 °C 52.5 °F /  11.4 °C 30.2in /  1022.4hPa NE 1.2mph /  1.9km/h 7.6mph /  12.2km/h 66.4% 0in /  0.0mm 402 W/m2
14:39 63.9 °F /  17.7 °C 52.2 °F /  11.2 °C 30.2in /  1022.4hPa Calm   4.9mph /  7.9km/h 65.8% 0in /  0.0mm 402 W/m2
14:49 64 °F /  17.8 °C 52.5 °F /  11.4 °C 30.2in /  1022.4hPa NNW 0.2mph /  0.4km/h 2.5mph /  4km/h 66.1% 0in /  0.0mm 404 W/m2
14:54 64.2 °F /  17.9 °C 52 °F /  11.1 °C 30.2in /  1022.4hPa SSE 0.2mph /  0.4km/h 7.6mph /  12.2km/h 64.2% 0in /  0.0mm 402 W/m2
14:59 64.6 °F /  18.1 °C 51.6 °F /  10.9 °C 30.2in /  1022.4hPa Calm   7.6mph /  12.2km/h 63% 0in /  0.0mm 400 W/m2
15:04 65.7 °F /  18.7 °C 52.5 °F /  11.4 °C 30.2in /  1022.0hPa SSE 0.6mph /  1km/h 4.9mph /  7.9km/h 62.8% 0in /  0.0mm 399 W/m2
15:09 66.9 °F /  19.4 °C 53.4 °F /  11.9 °C 30.2in /  1022.0hPa SSE 0.6mph /  1km/h 4.9mph /  7.9km/h 62.2% 0in /  0.0mm 396 W/m2
15:14 66.9 °F /  19.4 °C 53.8 °F /  12.1 °C 30.2in /  1022.0hPa SSE 1.7mph /  2.7km/h 7.6mph /  12.2km/h 62.9% 0in /  0.0mm 393 W/m2
15:19 66.9 °F /  19.4 °C 54 °F /  12.2 °C 30.2in /  1022.0hPa Calm   2.5mph /  4km/h 63% 0in /  0.0mm 387 W/m2
15:24 67.5 °F /  19.7 °C 54.1 °F /  12.3 °C 30.2in /  1022.0hPa SSE 0.6mph /  1km/h 4.9mph /  7.9km/h 62.2% 0in /  0.0mm 386 W/m2
15:29 68 °F /  20 °C 54.5 °F /  12.5 °C 30.2in /  1021.7hPa Calm   4.9mph /  7.9km/h 62% 0in /  0.0mm 383 W/m2
15:34 68 °F /  20 °C 54.7 °F /  12.6 °C 30.2in /  1021.7hPa SE 0.2mph /  0.3km/h 4.9mph /  7.9km/h 62.6% 0in /  0.0mm 381 W/m2
15:38 67.8 °F /  19.9 °C 54.7 °F /  12.6 °C 30.2in /  1021.7hPa Calm   4.9mph /  7.9km/h 62.9% 0in /  0.0mm 376 W/m2
15:49 66.7 °F /  19.3 °C 53.4 °F /  11.9 °C 30.2in /  1021.3hPa Calm     62.3% 0in /  0.0mm 369 W/m2
15:54 66.9 °F /  19.4 °C 53.8 °F /  12.1 °C 30.2in /  1021.7hPa Calm   2.5mph /  4km/h 62.7% 0in /  0.0mm 365 W/m2
15:59 67.3 °F /  19.6 °C 54.3 °F /  12.4 °C 30.2in /  1021.3hPa Calm   4.9mph /  7.9km/h 63% 0in /  0.0mm 360 W/m2
16:04 67.5 °F /  19.7 °C 54.3 °F /  12.4 °C 30.2in /  1021.3hPa South 0.4mph /  0.7km/h 4.9mph /  7.9km/h 62.8% 0in /  0.0mm 357 W/m2
16:09 67.5 °F /  19.7 °C 54.3 °F /  12.4 °C 30.2in /  1021.7hPa SSE 0.6mph /  0.9km/h 7.6mph /  12.2km/h 62.8% 0in /  0.0mm 348 W/m2
16:14 67.6 °F /  19.8 °C 53.4 °F /  11.9 °C 30.2in /  1021.7hPa Calm   7.6mph /  12.2km/h 60.8% 0in /  0.0mm 340 W/m2
16:19 68 °F /  20 °C 54 °F /  12.2 °C 30.2in /  1021.7hPa SSE 0.1mph /  0.2km/h 2.5mph /  4km/h 60.9% 0in /  0.0mm 146 W/m2
16:24 68.2 °F /  20.1 °C 54.7 °F /  12.6 °C 30.2in /  1021.3hPa South 0.2mph /  0.3km/h 4.9mph /  7.9km/h 62% 0in /  0.0mm 301 W/m2
16:29 68.4 °F /  20.2 °C 55 °F /  12.8 °C 30.2in /  1021.7hPa SSE 0.4mph /  0.7km/h 4.9mph /  7.9km/h 62.7% 0in /  0.0mm 316 W/m2
16:34 68.2 °F /  20.1 °C 55 °F /  12.8 °C 30.2in /  1021.3hPa Calm     63% 0in /  0.0mm 313 W/m2
16:39 67.8 °F /  19.9 °C 55 °F /  12.8 °C 30.2in /  1021.3hPa SE 0.1mph /  0.2km/h 2.5mph /  4km/h 63.7% 0in /  0.0mm 307 W/m2
16:44 67.5 °F /  19.7 °C 54.9 °F /  12.7 °C 30.2in /  1021.3hPa Calm   2.5mph /  4km/h 63.9% 0in /  0.0mm 299 W/m2
16:48 67.3 °F /  19.6 °C 54.1 °F /  12.3 °C 30.2in /  1021.3hPa Calm     63% 0in /  0.0mm 139 W/m2
16:54 67.1 °F /  19.5 °C 55 °F /  12.8 °C 30.2in /  1021.3hPa Calm     65.1% 0in /  0.0mm 85 W/m2
16:59 66.7 °F /  19.3 °C 55.2 °F /  12.9 °C 30.2in /  1021.3hPa Calm     66.3% 0in /  0.0mm 57 W/m2
17:04 66 °F /  18.9 °C 55 °F /  12.8 °C 30.2in /  1021.3hPa Calm     67.5% 0in /  0.0mm 55 W/m2
17:09 64.2 °F /  17.9 °C 53.4 °F /  11.9 °C 30.2in /  1021.0hPa Calm     68.3% 0in /  0.0mm 52 W/m2
17:14 64.2 °F /  17.9 °C 53.6 °F /  12 °C 30.2in /  1021.3hPa Calm     68.4% 0in /  0.0mm 49 W/m2
17:19 64 °F /  17.8 °C 53.6 °F /  12 °C 30.2in /  1021.0hPa Calm     69% 0in /  0.0mm 46 W/m2
17:24 63.7 °F /  17.6 °C 53.8 °F /  12.1 °C 30.2in /  1021.0hPa Calm     70.2% 0in /  0.0mm 44 W/m2
17:29 62.2 °F /  16.8 °C 52.7 °F /  11.5 °C 30.2in /  1021.0hPa Calm     71% 0in /  0.0mm 42 W/m2
17:34 62.2 °F /  16.8 °C 52.7 °F /  11.5 °C 30.2in /  1021.0hPa Calm     71% 0in /  0.0mm 40 W/m2
17:39 62.1 °F /  16.7 °C 52.9 °F /  11.6 °C 30.2in /  1021.0hPa Calm     72% 0in /  0.0mm 37 W/m2
17:44 61.9 °F /  16.6 °C 53.2 °F /  11.8 °C 30.2in /  1021.0hPa Calm     73.6% 0in /  0.0mm 35 W/m2
17:49 61 °F /  16.1 °C 53.1 °F /  11.7 °C 30.2in /  1021.0hPa Calm     75% 0in /  0.0mm 33 W/m2
17:54 61 °F /  16.1 °C 53.1 °F /  11.7 °C 30.2in /  1021.0hPa Calm     75% 0in /  0.0mm 30 W/m2
17:59 61 °F /  16.1 °C 53.2 °F /  11.8 °C 30.2in /  1021.0hPa Calm     75.9% 0in /  0.0mm 28 W/m2
18:04 60.8 °F /  16 °C 52.9 °F /  11.6 °C 30.2in /  1021.0hPa Calm     75.1% 0in /  0.0mm 25 W/m2
18:09 60.3 °F /  15.7 °C 52.7 °F /  11.5 °C 30.2in /  1021.0hPa Calm     76% 0in /  0.0mm 23 W/m2
18:14 60.1 °F /  15.6 °C 52.5 °F /  11.4 °C 30.2in /  1021.3hPa Calm     76% 0in /  0.0mm 20 W/m2
18:19 60.1 °F /  15.6 °C 52.7 °F /  11.5 °C 30.2in /  1021.3hPa Calm     76.6% 0in /  0.0mm 17 W/m2
18:24 60.1 °F /  15.6 °C 52.9 °F /  11.6 °C 30.2in /  1021.0hPa Calm     77% 0in /  0.0mm 13 W/m2
18:29 59.4 °F /  15.2 °C 52 °F /  11.1 °C 30.2in /  1021.0hPa Calm     76.3% 0in /  0.0mm 10 W/m2
18:34 59.4 °F /  15.2 °C 52.2 °F /  11.2 °C 30.2in /  1021.0hPa Calm     77% 0in /  0.0mm 7 W/m2
18:39 59.2 °F /  15.1 °C 52.3 °F /  11.3 °C 30.2in /  1021.3hPa Calm     78% 0in /  0.0mm 4 W/m2
18:44 59.2 °F /  15.1 °C 52.2 °F /  11.2 °C 30.2in /  1021.3hPa Calm     77.4% 0in /  0.0mm 0 W/m2
18:49 58.8 °F /  14.9 °C 51.6 °F /  10.9 °C 30.2in /  1021.3hPa Calm     77% 0in /  0.0mm 0 W/m2
18:54 58.8 °F /  14.9 °C 51.6 °F /  10.9 °C 30.2in /  1021.3hPa Calm     77% 0in /  0.0mm 0 W/m2
18:59 58.8 °F /  14.9 °C 51.6 °F /  10.9 °C 30.2in /  1021.3hPa Calm     77% 0in /  0.0mm 0 W/m2
19:04 58.8 °F /  14.9 °C 51.8 °F /  11 °C 30.2in /  1021.3hPa Calm     77.4% 0in /  0.0mm 0 W/m2
19:09 58.8 °F /  14.9 °C 51.8 °F /  11 °C 30.2in /  1021.3hPa Calm     77.1% 0in /  0.0mm 0 W/m2
19:14 58.8 °F /  14.9 °C 52 °F /  11.1 °C 30.2in /  1021.3hPa Calm     77.9% 0in /  0.0mm 0 W/m2
19:19 58.8 °F /  14.9 °C 52 °F /  11.1 °C 30.2in /  1021.3hPa Calm     78% 0in /  0.0mm 0 W/m2
19:24 58.8 °F /  14.9 °C 52 °F /  11.1 °C 30.2in /  1021.3hPa Calm     78% 0in /  0.0mm 0 W/m2
19:29 58.5 °F /  14.7 °C 51.6 °F /  10.9 °C 30.2in /  1021.3hPa Calm     78% 0in /  0.0mm 0 W/m2
19:34 58.3 °F /  14.6 °C 51.4 °F /  10.8 °C 30.2in /  1021.3hPa Calm     78% 0in /  0.0mm 0 W/m2
19:39 58.3 °F /  14.6 °C 51.3 °F /  10.7 °C 30.2in /  1021.3hPa Calm     77.6% 0in /  0.0mm 0 W/m2
19:44 58.3 °F /  14.6 °C 50.9 °F /  10.5 °C 30.2in /  1021.7hPa Calm     76.6% 0in /  0.0mm 0 W/m2
19:49 59 °F /  15 °C 51.3 °F /  10.7 °C 30.2in /  1021.7hPa Calm   2.5mph /  4km/h 76% 0in /  0.0mm 0 W/m2
19:54 58.8 °F /  14.9 °C 51.8 °F /  11 °C 30.2in /  1021.3hPa Calm     77.4% 0in /  0.0mm 0 W/m2
19:59 58.6 °F /  14.8 °C 51.8 °F /  11 °C 30.2in /  1021.3hPa Calm     78% 0in /  0.0mm 0 W/m2
20:04 58.6 °F /  14.8 °C 51.6 °F /  10.9 °C 30.2in /  1021.7hPa Calm     77.8% 0in /  0.0mm 0 W/m2
20:09 58.1 °F /  14.5 °C 51.1 °F /  10.6 °C 30.2in /  1021.7hPa Calm     77.9% 0in /  0.0mm 0 W/m2
20:14 57.9 °F /  14.4 °C 50.7 °F /  10.4 °C 30.2in /  1021.7hPa Calm     77.1% 0in /  0.0mm 0 W/m2
20:19 57.9 °F /  14.4 °C 50.7 °F /  10.4 °C 30.2in /  1021.3hPa Calm     77% 0in /  0.0mm 0 W/m2
20:24 57.9 °F /  14.4 °C 50.7 °F /  10.4 °C 30.2in /  1021.7hPa Calm     77% 0in /  0.0mm 0 W/m2
20:29 57.9 °F /  14.4 °C 50.7 °F /  10.4 °C 30.2in /  1021.3hPa Calm     77.4% 0in /  0.0mm 0 W/m2
20:34 57.9 °F /  14.4 °C 50.7 °F /  10.4 °C 30.2in /  1021.3hPa Calm     77.1% 0in /  0.0mm 0 W/m2
20:39 57.9 °F /  14.4 °C 50.5 °F /  10.3 °C 30.2in /  1021.7hPa Calm     76.3% 0in /  0.0mm 0 W/m2
20:44 57.9 °F /  14.4 °C 50.5 °F /  10.3 °C 30.2in /  1021.7hPa Calm     76.4% 0in /  0.0mm 0 W/m2
20:49 58.1 °F /  14.5 °C 50.9 °F /  10.5 °C 30.2in /  1021.7hPa Calm     77% 0in /  0.0mm 0 W/m2
20:54 57.9 °F /  14.4 °C 50.7 °F /  10.4 °C 30.2in /  1021.7hPa Calm     77.1% 0in /  0.0mm 0 W/m2
20:59 58.1 °F /  14.5 °C 50.7 °F /  10.4 °C 30.2in /  1021.7hPa Calm     76.7% 0in /  0.0mm 0 W/m2
21:04 58.1 °F /  14.5 °C 50.9 °F /  10.5 °C 30.2in /  1021.7hPa Calm     77% 0in /  0.0mm 0 W/m2
21:09 58.3 °F /  14.6 °C 51.3 °F /  10.7 °C 30.2in /  1021.7hPa Calm     77.9% 0in /  0.0mm 0 W/m2
21:14 58.1 °F /  14.5 °C 51.3 °F /  10.7 °C 30.2in /  1021.7hPa Calm     77.7% 0in /  0.0mm 0 W/m2
21:19 58.3 °F /  14.6 °C 51.1 °F /  10.6 °C 30.2in /  1021.7hPa Calm     76.8% 0in /  0.0mm 0 W/m2
21:24 58.5 °F /  14.7 °C 50.7 °F /  10.4 °C 30.2in /  1022.0hPa Calm     75.9% 0in /  0.0mm 0 W/m2
21:29 59 °F /  15 °C 51.1 °F /  10.6 °C 30.2in /  1021.7hPa Calm     75% 0in /  0.0mm 0 W/m2
21:34 59.4 °F /  15.2 °C 51.3 °F /  10.7 °C 30.2in /  1021.7hPa Calm     74.3% 0in /  0.0mm 0 W/m2
21:39 59.4 °F /  15.2 °C 50.7 °F /  10.4 °C 30.2in /  1021.7hPa Calm     73% 0in /  0.0mm 0 W/m2
21:44 59.5 °F /  15.3 °C 51.3 °F /  10.7 °C 30.2in /  1021.7hPa Calm     74% 0in /  0.0mm 0 W/m2
21:49 59.2 °F /  15.1 °C 51.1 °F /  10.6 °C 30.2in /  1021.7hPa Calm     74.6% 0in /  0.0mm 0 W/m2
21:54 59 °F /  15 °C 50.4 °F /  10.2 °C 30.2in /  1021.7hPa Calm     73.1% 0in /  0.0mm 0 W/m2
21:59 59 °F /  15 °C 50.2 °F /  10.1 °C 30.2in /  1022.0hPa Calm     72.7% 0in /  0.0mm 0 W/m2
22:04 59.2 °F /  15.1 °C 49.8 °F /  9.9 °C 30.2in /  1022.0hPa Calm     71.2% 0in /  0.0mm 0 W/m2
22:09 59.9 °F /  15.5 °C 50.5 °F /  10.3 °C 30.2in /  1022.0hPa Calm     71.3% 0in /  0.0mm 0 W/m2
22:14 59.9 °F /  15.5 °C 51.3 °F /  10.7 °C 30.2in /  1022.0hPa Calm     73.1% 0in /  0.0mm 0 W/m2
22:19 59.5 °F /  15.3 °C 51.6 °F /  10.9 °C 30.2in /  1022.0hPa Calm     74.8% 0in /  0.0mm 0 W/m2
22:24 59.4 °F /  15.2 °C 51.4 °F /  10.8 °C 30.2in /  1022.0hPa Calm     75.1% 0in /  0.0mm 0 W/m2
22:29 58.3 °F /  14.6 °C 50.5 °F /  10.3 °C 30.2in /  1022.0hPa Calm     75.7% 0in /  0.0mm 0 W/m2
22:34 57.7 °F /  14.3 °C 50 °F /  10 °C 30.2in /  1022.0hPa Calm     75.6% 0in /  0.0mm 0 W/m2
22:39 57.9 °F /  14.4 °C 49.5 °F /  9.7 °C 30.2in /  1022.0hPa Calm     73.3% 0in /  0.0mm 0 W/m2
22:44 58.1 °F /  14.5 °C 49.5 °F /  9.7 °C 30.2in /  1022.0hPa Calm     72.7% 0in /  0.0mm 0 W/m2
22:49 58.8 °F /  14.9 °C 50 °F /  10 °C 30.2in /  1022.0hPa Calm     72.9% 0in /  0.0mm 0 W/m2
22:54 59 °F /  15 °C 50.5 °F /  10.3 °C 30.2in /  1022.0hPa Calm     73.7% 0in /  0.0mm 0 W/m2
22:59 58.8 °F /  14.9 °C 50.5 °F /  10.3 °C 30.2in /  1022.0hPa Calm     74% 0in /  0.0mm 0 W/m2
23:04 58.8 °F /  14.9 °C 50.2 °F /  10.1 °C 30.2in /  1022.0hPa Calm     73% 0in /  0.0mm 0 W/m2
23:09 58.6 °F /  14.8 °C 50.2 °F /  10.1 °C 30.2in /  1022.0hPa Calm     73% 0in /  0.0mm 0 W/m2
23:14 58.6 °F /  14.8 °C 50.2 °F /  10.1 °C 30.2in /  1022.4hPa Calm     73.3% 0in /  0.0mm 0 W/m2
23:19 58.6 °F /  14.8 °C 50 °F /  10 °C 30.2in /  1022.4hPa Calm     73% 0in /  0.0mm 0 W/m2
23:24 58.6 °F /  14.8 °C 50 °F /  10 °C 30.2in /  1022.4hPa Calm     73% 0in /  0.0mm 0 W/m2
23:29 58.8 °F /  14.9 °C 50.2 °F /  10.1 °C 30.2in /  1022.4hPa Calm     73% 0in /  0.0mm 0 W/m2
23:34 59 °F /  15 °C 50.2 °F /  10.1 °C 30.2in /  1022.4hPa Calm     72.7% 0in /  0.0mm 0 W/m2
23:39 58.8 °F /  14.9 °C 50.5 °F /  10.3 °C 30.2in /  1022.4hPa Calm     73.6% 0in /  0.0mm 0 W/m2
23:44 58.6 °F /  14.8 °C 50.9 °F /  10.5 °C 30.2in /  1022.4hPa Calm     75.3% 0in /  0.0mm 0 W/m2
23:49 58.3 °F /  14.6 °C 50.5 °F /  10.3 °C 30.2in /  1022.0hPa Calm     75.3% 0in /  0.0mm 0 W/m2
23:54 57.7 °F /  14.3 °C 50 °F /  10 °C 30.2in /  1022.4hPa Calm   2.5mph /  4km/h 75.5% 0in /  0.0mm 0 W/m2
23:59 57.9 °F /  14.4 °C 50 °F /  10 °C 30.2in /  1022.4hPa WSW 0.1mph /  0.2km/h 2.5mph /  4km/h 75% 0in /  0.0mm 0 W/m2
Juneau County Weather
Compliments of Weather Underground - 2 mb